Time;durP1;ratioP1;P1;durP2;ratioP2;P2;SDS_P1;SDS_P2;PMS_P1;PMS_P2;Temp;Humidity;BMP_temperature;BMP_pressure;BME280_temperature;BME280_humidity;BME280_pressure;Samples;Min_cycle;Max_cycle;Signal;HPM_P1;HPM_P2
2022/09/30 00:02:24;;;;;;;16.92;9.70;;;6.90;99.90;;;;;;4956847;28;20585;-60
2022/09/30 00:04:50;;;;;;;17.15;9.70;;;6.90;99.90;;;;;;4953728;28;20034;-58
2022/09/30 00:07:16;;;;;;;14.13;9.38;;;6.80;99.90;;;;;;4950780;28;20527;-60
2022/09/30 00:09:41;;;;;;;14.43;9.63;;;6.70;99.90;;;;;;4959542;28;20291;-59
2022/09/30 00:12:07;;;;;;;12.73;9.60;;;6.80;99.90;;;;;;4956878;28;20049;-61
2022/09/30 00:14:33;;;;;;;12.25;8.60;;;6.70;99.90;;;;;;4953942;28;20139;-59
2022/09/30 00:16:58;;;;;;;12.25;8.77;;;6.60;99.90;;;;;;4956726;28;20118;-60
2022/09/30 00:19:24;;;;;;;13.75;9.02;;;6.70;99.90;;;;;;4954506;28;20058;-59
2022/09/30 00:21:50;;;;;;;14.60;9.32;;;6.70;99.90;;;;;;4955371;28;20027;-60
2022/09/30 00:24:15;;;;;;;16.85;9.52;;;6.70;99.90;;;;;;4957285;28;20432;-60
2022/09/30 00:26:41;;;;;;;17.92;9.02;;;6.80;99.90;;;;;;4958250;28;21000;-60
2022/09/30 00:29:08;;;;;;;11.98;8.90;;;6.70;99.90;;;;;;4954561;28;20105;-59
2022/09/30 00:31:34;;;;;;;17.33;9.38;;;6.70;99.90;;;;;;4955742;28;20035;-58
2022/09/30 00:34:06;;;;;;;13.23;9.43;;;6.60;99.90;;;;;;4955716;28;20487;-60
2022/09/30 00:36:37;;;;;;;12.70;9.27;;;6.50;99.90;;;;;;4960704;28;20114;-60
2022/09/30 00:39:05;;;;;;;14.20;9.07;;;6.60;99.90;;;;;;4957344;28;20512;-59
2022/09/30 00:41:31;;;;;;;13.68;9.57;;;6.60;99.90;;;;;;4958915;28;20043;-60
2022/09/30 00:43:56;;;;;;;12.50;9.43;;;6.60;99.90;;;;;;4962929;28;20035;-60
2022/09/30 00:46:34;;;;;;;14.43;9.15;;;6.50;99.90;;;;;;4952804;28;20053;-59
2022/09/30 00:49:04;;;;;;;15.68;9.30;;;6.50;99.90;;;;;;4952469;28;20329;-60
2022/09/30 00:51:36;;;;;;;13.85;9.27;;;6.50;99.90;;;;;;4949583;28;20038;-60
2022/09/30 00:54:09;;;;;;;15.65;9.68;;;6.50;99.90;;;;;;4954902;28;20046;-59
2022/09/30 00:56:41;;;;;;;13.07;8.55;;;6.40;99.90;;;;;;4953949;28;20050;-60
2022/09/30 00:59:15;;;;;;;13.45;9.55;;;6.30;99.90;;;;;;4957252;28;20039;-60
2022/09/30 01:01:41;;;;;;;15.95;9.10;;;6.40;99.90;;;;;;4956784;28;20514;-60
2022/09/30 01:04:22;;;;;;;13.50;8.60;;;6.50;99.90;;;;;;4952208;28;20522;-60
2022/09/30 01:06:49;;;;;;;13.45;9.10;;;6.40;99.90;;;;;;4958012;28;20047;-60
2022/09/30 01:09:15;;;;;;;12.95;9.02;;;6.50;99.90;;;;;;4953386;28;20363;-60
2022/09/30 01:11:40;;;;;;;13.18;8.73;;;6.50;99.90;;;;;;4959464;28;20034;-60
2022/09/30 01:14:19;;;;;;;14.55;8.90;;;6.20;99.90;;;;;;4952906;28;20027;-60
2022/09/30 01:17:09;;;;;;;13.32;8.90;;;6.30;99.90;;;;;;4956354;28;20499;-60
2022/09/30 01:20:02;;;;;;;13.50;8.80;;;6.50;99.90;;;;;;4953870;28;20038;-60
2022/09/30 01:22:46;;;;;;;12.32;7.13;;;6.50;99.90;;;;;;4951342;28;20099;-60
2022/09/30 01:25:24;;;;;;;11.23;8.27;;;6.40;99.90;;;;;;4952366;28;20462;-60
2022/09/30 01:28:17;;;;;;;14.10;8.82;;;6.30;99.90;;;;;;4963422;28;20165;-60
2022/09/30 01:31:13;;;;;;;17.30;9.73;;;6.40;99.90;;;;;;4959513;28;20043;-60
2022/09/30 01:33:53;;;;;;;12.30;8.77;;;6.20;99.90;;;;;;4949026;28;20369;-60
2022/09/30 01:36:41;;;;;;;12.95;9.23;;;6.20;99.90;;;;;;4953207;28;20515;-60
2022/09/30 01:39:37;;;;;;;11.02;8.60;;;6.20;99.90;;;;;;4957155;28;20045;-60
2022/09/30 01:42:23;;;;;;;11.43;8.60;;;6.20;99.90;;;;;;4964642;28;20767;-60
2022/09/30 01:45:05;;;;;;;14.73;9.10;;;6.20;99.90;;;;;;4955526;28;20028;-60
2022/09/30 01:47:57;;;;;;;14.05;8.68;;;6.20;99.90;;;;;;4957607;28;20038;-60
2022/09/30 01:50:35;;;;;;;12.82;8.88;;;6.00;99.90;;;;;;4949569;28;20057;-61
2022/09/30 01:53:26;;;;;;;15.90;9.57;;;6.30;99.90;;;;;;4956873;28;20036;-61
2022/09/30 01:56:17;;;;;;;16.83;10.52;;;6.20;99.90;;;;;;4951800;28;20106;-61
2022/09/30 01:59:09;;;;;;;13.38;9.48;;;6.10;99.90;;;;;;4959554;28;20487;-61
2022/09/30 02:01:46;;;;;;;17.10;10.10;;;6.30;99.90;;;;;;4960664;28;20432;-60
2022/09/30 02:04:19;;;;;;;21.40;12.40;;;6.20;99.90;;;;;;4952731;28;20129;-61
2022/09/30 02:06:51;;;;;;;24.10;13.70;;;6.10;99.90;;;;;;4958169;28;20125;-61
2022/09/30 02:09:32;;;;;;;30.08;15.13;;;6.10;99.90;;;;;;4959676;28;20031;-60
2022/09/30 02:12:02;;;;;;;21.58;12.32;;;6.00;99.90;;;;;;4956871;28;20525;-60
2022/09/30 02:14:40;;;;;;;25.52;13.43;;;6.10;99.90;;;;;;4952625;28;20408;-60
2022/09/30 02:17:15;;;;;;;21.65;13.40;;;6.00;99.90;;;;;;4960893;28;20039;-61
2022/09/30 02:19:50;;;;;;;20.45;11.93;;;6.20;99.90;;;;;;4957410;28;20076;-61
2022/09/30 02:22:27;;;;;;;19.55;10.80;;;6.10;99.90;;;;;;4956284;28;20406;-60
2022/09/30 02:24:59;;;;;;;18.80;11.05;;;6.00;99.90;;;;;;4957969;28;20073;-60
2022/09/30 02:27:33;;;;;;;11.35;8.10;;;5.90;99.90;;;;;;4963728;28;20130;-61
2022/09/30 02:30:02;;;;;;;18.27;11.18;;;6.10;99.90;;;;;;4959780;28;20031;-60
2022/09/30 02:32:34;;;;;;;18.75;11.40;;;6.20;99.90;;;;;;4960268;28;20039;-61
2022/09/30 02:35:06;;;;;;;10.65;7.93;;;6.10;99.90;;;;;;4961034;28;20784;-60
2022/09/30 02:37:45;;;;;;;15.60;10.48;;;6.10;99.90;;;;;;4962647;28;20034;-60
2022/09/30 02:40:35;;;;;;;14.30;10.40;;;6.00;99.90;;;;;;4951571;28;20484;-60
2022/09/30 02:43:02;;;;;;;15.35;10.05;;;6.00;99.90;;;;;;4960295;28;20116;-59
2022/09/30 02:45:33;;;;;;;17.38;10.25;;;6.10;99.90;;;;;;4960995;28;20727;-61
2022/09/30 02:48:46;;;;;;;11.10;9.05;;;6.10;99.90;;;;;;4959494;28;20634;-60
2022/09/30 02:51:18;;;;;;;13.23;9.53;;;6.00;99.90;;;;;;4897147;28;20118;-60
2022/09/30 02:53:58;;;;;;;13.18;8.93;;;6.10;99.90;;;;;;4953878;28;20275;-60
2022/09/30 02:57:00;;;;;;;14.40;9.63;;;6.20;99.90;;;;;;4959908;28;20039;-60
2022/09/30 02:59:26;;;;;;;12.70;8.98;;;6.20;99.90;;;;;;4955597;28;20120;-59
2022/09/30 03:01:52;;;;;;;14.40;9.60;;;6.10;99.90;;;;;;4960895;28;20039;-60
2022/09/30 03:04:23;;;;;;;15.25;10.20;;;6.10;99.90;;;;;;4960166;28;20113;-60
2022/09/30 03:06:49;;;;;;;14.68;9.80;;;6.20;99.90;;;;;;4953787;28;20518;-60
2022/09/30 03:09:15;;;;;;;13.13;9.63;;;6.20;99.90;;;;;;4961362;28;20051;-60
2022/09/30 03:11:41;;;;;;;15.50;9.75;;;6.30;99.90;;;;;;4955499;28;20032;-60
2022/09/30 03:14:44;;;;;;;13.75;9.55;;;6.40;99.90;;;;;;4954095;28;20804;-59
2022/09/30 03:17:23;;;;;;;13.10;9.70;;;6.30;99.90;;;;;;4957555;28;20035;-60
2022/09/30 03:20:13;;;;;;;16.20;10.25;;;6.20;99.90;;;;;;4956556;28;20047;-57
2022/09/30 03:22:59;;;;;;;14.27;10.02;;;6.20;99.90;;;;;;4962190;28;20059;-58
2022/09/30 03:25:46;;;;;;;14.60;9.70;;;6.30;99.90;;;;;;4957151;28;20070;-58
2022/09/30 03:28:27;;;;;;;16.05;10.90;;;6.30;99.90;;;;;;4948093;28;20641;-60
2022/09/30 03:31:32;;;;;;;19.00;12.00;;;6.30;99.90;;;;;;4955440;28;20480;-59
2022/09/30 03:34:08;;;;;;;;;;;6.40;99.90;;;;;;4920332;29;20047;-59
2022/09/30 03:36:51;;;;;;;21.25;13.05;;;6.40;99.90;;;;;;4911736;29;20412;-59
2022/09/30 03:39:22;;;;;;;14.38;9.55;;;6.40;99.90;;;;;;4946357;28;20035;-58
2022/09/30 03:41:57;;;;;;;19.20;13.02;;;6.30;99.90;;;;;;4957148;28;20226;-59
2022/09/30 03:44:39;;;;;;;18.00;14.07;;;6.40;99.90;;;;;;4950049;28;20732;-59
2022/09/30 03:47:12;;;;;;;15.82;13.55;;;6.40;99.90;;;;;;4958045;28;20043;-58
2022/09/30 03:49:53;;;;;;;16.52;12.98;;;6.40;99.90;;;;;;4958098;28;20092;-59
2022/09/30 03:52:21;;;;;;;18.67;13.60;;;6.40;99.90;;;;;;4955249;28;20098;-60
2022/09/30 03:54:54;;;;;;;17.33;12.73;;;6.40;99.90;;;;;;4955650;28;20022;-59
2022/09/30 03:57:20;;;;;;;18.85;13.50;;;6.40;99.90;;;;;;4953288;28;20047;-59
2022/09/30 03:59:45;;;;;;;18.90;13.45;;;6.40;99.90;;;;;;4950268;28;20042;-60
2022/09/30 04:02:12;;;;;;;18.17;13.45;;;6.40;99.90;;;;;;4954786;28;20023;-59
2022/09/30 04:04:39;;;;;;;18.30;13.80;;;6.30;99.90;;;;;;4954296;28;20039;-59
2022/09/30 04:07:05;;;;;;;21.00;14.00;;;6.30;99.90;;;;;;4953232;28;20043;-57
2022/09/30 04:09:31;;;;;;;16.98;13.40;;;6.30;99.90;;;;;;4957692;28;20101;-59
2022/09/30 04:11:56;;;;;;;16.65;13.32;;;6.30;99.90;;;;;;4957893;28;20034;-60
2022/09/30 04:14:22;;;;;;;19.50;14.50;;;6.30;99.90;;;;;;4957209;28;20051;-59
2022/09/30 04:16:47;;;;;;;25.38;14.77;;;6.40;99.90;;;;;;4959445;28;20109;-59
2022/09/30 04:19:13;;;;;;;24.33;15.98;;;6.30;99.90;;;;;;4955863;28;20046;-59
2022/09/30 04:21:38;;;;;;;24.48;16.45;;;6.30;99.90;;;;;;4956865;28;20038;-59
2022/09/30 04:24:04;;;;;;;22.73;17.52;;;6.30;99.90;;;;;;4957367;28;20039;-60
2022/09/30 04:26:30;;;;;;;24.83;18.80;;;6.30;99.90;;;;;;4959001;28;20105;-60
2022/09/30 04:28:57;;;;;;;28.33;19.75;;;6.20;99.90;;;;;;4957672;28;20375;-60
2022/09/30 04:31:23;;;;;;;27.92;20.52;;;6.30;99.90;;;;;;4958713;28;20120;-59
2022/09/30 04:33:49;;;;;;;44.38;30.15;;;6.30;99.90;;;;;;4957010;28;20075;-60
2022/09/30 04:36:17;;;;;;;59.72;38.97;;;6.20;99.90;;;;;;4955540;28;20035;-60
2022/09/30 04:38:42;;;;;;;78.95;49.10;;;6.20;99.90;;;;;;4957958;28;20058;-58
2022/09/30 04:41:14;;;;;;;63.13;39.80;;;6.20;99.90;;;;;;4955589;28;20631;-60
2022/09/30 04:43:45;;;;;;;55.77;35.60;;;6.20;99.90;;;;;;4956619;28;20061;-59
2022/09/30 04:46:15;;;;;;;49.28;32.20;;;6.10;99.90;;;;;;4957070;28;20435;-60
2022/09/30 04:48:44;;;;;;;45.10;31.27;;;6.20;99.90;;;;;;4958847;28;20340;-59
2022/09/30 04:51:10;;;;;;;46.75;34.38;;;6.10;99.90;;;;;;4956269;28;20549;-60
2022/09/30 04:53:36;;;;;;;51.47;35.28;;;6.10;99.90;;;;;;4959070;28;20063;-59
2022/09/30 04:56:01;;;;;;;46.40;31.67;;;6.10;99.90;;;;;;4956711;28;20077;-58
2022/09/30 04:58:28;;;;;;;42.60;30.25;;;6.10;99.90;;;;;;4950724;28;20042;-58
2022/09/30 05:01:20;;;;;;;50.40;35.25;;;6.20;99.90;;;;;;4957502;28;20093;-58
2022/09/30 05:03:46;;;;;;;45.80;34.13;;;6.10;99.90;;;;;;4951986;28;20047;-58
2022/09/30 05:06:12;;;;;;;45.78;33.92;;;6.10;99.90;;;;;;4959775;28;20400;-59
2022/09/30 05:08:37;;;;;;;42.83;30.73;;;6.10;99.90;;;;;;4958291;28;20054;-59
2022/09/30 05:11:09;;;;;;;39.63;30.30;;;6.20;99.90;;;;;;4952368;28;20146;-60
2022/09/30 05:13:37;;;;;;;38.83;29.38;;;6.30;99.90;;;;;;4959599;28;20125;-58
2022/09/30 05:16:03;;;;;;;45.38;33.67;;;6.30;99.90;;;;;;4961127;28;20065;-59
2022/09/30 05:18:29;;;;;;;45.40;32.72;;;6.20;99.90;;;;;;4957807;28;20058;-60
2022/09/30 05:20:56;;;;;;;40.78;32.13;;;6.20;99.90;;;;;;4962953;28;20490;-60
2022/09/30 05:23:23;;;;;;;45.50;32.70;;;6.20;99.90;;;;;;4959760;28;20448;-57
2022/09/30 05:25:49;;;;;;;40.90;31.88;;;6.20;99.90;;;;;;4959902;28;20645;-58
2022/09/30 05:28:15;;;;;;;44.75;34.83;;;6.30;99.90;;;;;;4955134;28;20462;-58
2022/09/30 05:30:42;;;;;;;43.35;33.50;;;6.30;99.90;;;;;;4963911;28;20034;-59
2022/09/30 05:33:08;;;;;;;35.53;28.05;;;6.30;99.90;;;;;;4960434;28;20031;-58
2022/09/30 05:35:34;;;;;;;35.38;27.20;;;6.40;99.90;;;;;;4963181;28;20053;-59
2022/09/30 05:38:02;;;;;;;34.30;26.70;;;6.30;99.90;;;;;;4957162;28;20035;-58
2022/09/30 05:40:28;;;;;;;32.03;24.90;;;6.20;99.90;;;;;;4954590;28;20122;-58
2022/09/30 05:42:59;;;;;;;31.42;24.38;;;6.30;99.90;;;;;;4959154;28;20117;-58
2022/09/30 05:45:25;;;;;;;30.27;23.58;;;6.30;99.90;;;;;;4959704;28;20046;-58
2022/09/30 05:47:55;;;;;;;27.77;23.27;;;6.20;99.90;;;;;;4966111;28;20030;-58
2022/09/30 05:50:22;;;;;;;25.80;22.65;;;6.20;99.90;;;;;;4961353;28;20132;-57
2022/09/30 05:52:48;;;;;;;29.88;21.67;;;6.10;99.90;;;;;;4956026;28;20035;-57
2022/09/30 05:55:15;;;;;;;28.20;22.42;;;6.00;99.90;;;;;;4959697;28;20045;-58
2022/09/30 05:57:41;;;;;;;31.08;23.42;;;5.90;99.90;;;;;;4958053;28;20089;-58
2022/09/30 06:00:08;;;;;;;29.70;23.38;;;6.00;99.90;;;;;;4947295;28;20232;-58
2022/09/30 06:02:37;;;;;;;28.00;22.00;;;6.10;99.90;;;;;;4960997;28;20474;-58
2022/09/30 06:05:07;;;;;;;26.25;21.88;;;6.20;99.90;;;;;;4957616;28;20553;-59
2022/09/30 06:07:34;;;;;;;27.20;22.67;;;6.10;99.90;;;;;;4955127;28;20448;-59
2022/09/30 06:10:00;;;;;;;30.00;24.67;;;6.10;99.90;;;;;;4960340;28;20042;-58
2022/09/30 06:12:28;;;;;;;35.53;26.25;;;6.10;99.90;;;;;;4960654;28;20114;-58
2022/09/30 06:14:54;;;;;;;33.97;25.85;;;6.20;99.90;;;;;;4958162;28;20154;-59
2022/09/30 06:17:21;;;;;;;32.65;24.42;;;6.10;99.90;;;;;;4956881;28;20031;-59
2022/09/30 06:19:48;;;;;;;27.67;20.88;;;6.20;99.90;;;;;;4952252;28;20045;-58
2022/09/30 06:22:15;;;;;;;20.50;17.08;;;6.20;99.90;;;;;;4955086;28;20046;-57
2022/09/30 06:24:40;;;;;;;23.55;16.35;;;6.30;99.90;;;;;;4951466;28;20884;-59
2022/09/30 06:27:06;;;;;;;24.95;17.55;;;6.30;99.90;;;;;;4956165;28;20081;-58
2022/09/30 06:29:31;;;;;;;21.27;17.77;;;6.40;99.90;;;;;;4957418;28;20035;-59
2022/09/30 06:31:57;;;;;;;20.70;17.00;;;6.50;99.90;;;;;;4960224;28;20038;-58
2022/09/30 06:34:23;;;;;;;19.77;16.60;;;6.50;99.90;;;;;;4957043;28;20059;-58
2022/09/30 06:36:48;;;;;;;26.00;17.60;;;6.60;99.90;;;;;;4958526;28;20045;-59
2022/09/30 06:39:14;;;;;;;28.90;19.95;;;6.70;99.90;;;;;;4952424;28;20058;-57
2022/09/30 06:41:41;;;;;;;29.42;19.00;;;6.80;99.90;;;;;;4955395;28;20035;-58
2022/09/30 06:44:06;;;;;;;23.67;18.30;;;6.90;99.90;;;;;;4953675;28;20046;-58
2022/09/30 06:46:33;;;;;;;26.35;16.90;;;7.00;99.90;;;;;;4957034;28;20122;-59
2022/09/30 06:48:59;;;;;;;23.73;16.45;;;7.10;99.90;;;;;;4957483;28;20031;-59
2022/09/30 06:51:25;;;;;;;25.75;17.65;;;7.30;99.90;;;;;;4950692;28;20043;-59
2022/09/30 06:53:53;;;;;;;22.20;16.63;;;7.50;99.90;;;;;;4953960;28;20138;-59
2022/09/30 06:56:18;;;;;;;24.48;16.52;;;7.40;99.90;;;;;;4951895;28;20054;-59
2022/09/30 06:58:45;;;;;;;20.38;16.35;;;7.60;99.90;;;;;;4952751;28;20070;-59
2022/09/30 07:01:13;;;;;;;23.33;17.10;;;7.60;99.90;;;;;;4956775;28;20548;-58
2022/09/30 07:03:40;;;;;;;21.10;16.90;;;7.70;99.90;;;;;;4958880;28;20039;-58
2022/09/30 07:06:05;;;;;;;24.67;17.55;;;7.70;99.90;;;;;;4958624;28;20102;-58
2022/09/30 07:08:33;;;;;;;33.15;24.15;;;7.80;99.90;;;;;;4955106;28;20043;-59
2022/09/30 07:11:03;;;;;;;64.90;42.83;;;7.90;99.90;;;;;;4960079;28;20739;-59
2022/09/30 07:13:28;;;;;;;22.02;15.32;;;8.10;99.90;;;;;;4959382;28;20525;-59
2022/09/30 07:15:55;;;;;;;24.48;16.15;;;8.00;99.90;;;;;;4957396;28;20125;-58
2022/09/30 07:18:22;;;;;;;20.85;14.73;;;8.00;99.90;;;;;;4957723;28;20054;-58
2022/09/30 07:20:52;;;;;;;25.08;15.65;;;8.10;99.90;;;;;;4962926;28;20521;-57
2022/09/30 07:23:18;;;;;;;23.33;15.77;;;8.20;99.90;;;;;;4961920;28;20485;-59
2022/09/30 07:25:59;;;;;;;23.02;17.30;;;8.30;99.90;;;;;;4954627;28;20043;-59
2022/09/30 07:28:29;;;;;;;22.77;16.92;;;8.50;99.90;;;;;;4961070;28;20036;-59
2022/09/30 07:30:57;;;;;;;26.70;17.13;;;8.60;99.90;;;;;;4956740;28;20057;-59
2022/09/30 07:33:25;;;;;;;25.00;17.73;;;8.60;99.90;;;;;;4960499;28;20383;-59
2022/09/30 07:35:52;;;;;;;25.75;18.45;;;8.70;99.90;;;;;;4959551;28;20067;-59
2022/09/30 07:38:19;;;;;;;24.58;17.55;;;8.80;99.90;;;;;;4958432;28;20473;-58
2022/09/30 07:41:00;;;;;;;29.05;18.10;;;8.90;99.90;;;;;;4955417;28;20511;-58
2022/09/30 07:43:37;;;;;;;27.38;17.83;;;8.90;99.90;;;;;;4957312;28;20450;-58
2022/09/30 07:46:04;;;;;;;22.98;17.25;;;8.90;99.90;;;;;;4954249;28;20070;-58
2022/09/30 07:48:42;;;;;;;24.58;18.05;;;9.00;99.90;;;;;;4951563;28;20416;-59
2022/09/30 07:51:20;;;;;;;29.10;18.25;;;9.00;99.90;;;;;;4959037;28;20483;-57
2022/09/30 07:53:48;;;;;;;24.25;18.70;;;9.00;99.90;;;;;;4955874;28;20119;-59
2022/09/30 07:56:14;;;;;;;27.20;17.58;;;9.10;99.90;;;;;;4952826;28;20069;-59
2022/09/30 07:58:40;;;;;;;24.58;17.48;;;9.20;99.90;;;;;;4957491;28;20063;-59
2022/09/30 08:01:06;;;;;;;25.10;18.23;;;9.30;99.90;;;;;;4952523;28;20058;-59
2022/09/30 08:03:40;;;;;;;26.23;19.05;;;9.30;99.90;;;;;;4958566;28;20038;-59
2022/09/30 08:06:09;;;;;;;27.08;20.15;;;9.40;99.90;;;;;;4956099;28;20031;-59
2022/09/30 08:08:35;;;;;;;28.13;21.65;;;9.50;99.90;;;;;;4957132;28;20494;-59
2022/09/30 08:11:03;;;;;;;31.90;21.42;;;9.70;99.90;;;;;;4957747;28;20034;-59
2022/09/30 08:13:28;;;;;;;33.15;21.55;;;9.70;99.90;;;;;;4957512;28;20068;-59
2022/09/30 08:15:54;;;;;;;29.08;20.50;;;9.60;99.90;;;;;;4950558;28;20183;-59
2022/09/30 08:18:20;;;;;;;30.77;22.00;;;9.70;99.90;;;;;;4959567;28;20042;-59
2022/09/30 08:20:45;;;;;;;29.63;21.90;;;9.70;99.90;;;;;;4961098;28;20038;-59
2022/09/30 08:23:11;;;;;;;31.10;23.23;;;9.80;99.90;;;;;;4958248;28;20110;-59
2022/09/30 08:25:36;;;;;;;30.52;23.15;;;9.90;99.90;;;;;;4958737;28;20041;-58
2022/09/30 08:28:02;;;;;;;30.67;21.70;;;10.00;99.90;;;;;;4956814;28;20673;-59
2022/09/30 08:30:28;;;;;;;27.92;21.48;;;10.00;99.90;;;;;;4956357;28;20136;-59
2022/09/30 08:32:53;;;;;;;41.92;24.17;;;10.10;99.90;;;;;;4958388;28;20174;-59
2022/09/30 08:35:19;;;;;;;34.70;24.80;;;10.20;99.90;;;;;;4956410;28;20031;-58
2022/09/30 08:37:45;;;;;;;30.40;23.65;;;10.40;99.90;;;;;;4959399;28;20741;-59
2022/09/30 08:40:22;;;;;;;32.50;22.75;;;10.40;99.90;;;;;;4958054;28;20092;-59
2022/09/30 08:43:18;;;;;;;35.03;23.92;;;10.50;99.90;;;;;;4955238;28;20158;-59
2022/09/30 08:45:52;;;;;;;30.80;21.73;;;10.60;99.90;;;;;;4961613;28;20414;-57
2022/09/30 08:48:45;;;;;;;28.15;21.02;;;10.70;99.90;;;;;;4947287;28;20542;-58
2022/09/30 08:51:26;;;;;;;26.35;20.38;;;10.70;99.90;;;;;;4955633;28;20031;-58
2022/09/30 08:53:53;;;;;;;29.10;21.30;;;10.90;99.90;;;;;;4958203;28;20034;-59
2022/09/30 08:56:29;;;;;;;26.90;20.33;;;10.90;99.90;;;;;;4953657;28;20576;-58
2022/09/30 08:59:04;;;;;;;46.92;33.58;;;10.90;99.90;;;;;;4956439;28;20061;-58
2022/09/30 09:01:36;;;;;;;32.80;23.17;;;11.00;99.90;;;;;;4951706;28;20486;-59
2022/09/30 09:04:04;;;;;;;31.83;23.27;;;11.00;99.90;;;;;;4952817;28;20062;-59
2022/09/30 09:06:55;;;;;;;29.23;22.38;;;11.10;99.90;;;;;;4951269;28;20036;-59
2022/09/30 09:09:31;;;;;;;29.25;20.63;;;11.10;99.90;;;;;;4954204;28;20046;-59
2022/09/30 09:12:21;;;;;;;28.42;22.42;;;11.20;99.90;;;;;;4950388;28;20541;-59
2022/09/30 09:15:24;;;;;;;29.25;21.38;;;11.30;99.90;;;;;;4955363;28;20039;-60
2022/09/30 09:17:55;;;;;;;32.17;20.85;;;11.30;99.90;;;;;;4951808;28;20042;-59
2022/09/30 09:20:24;;;;;;;28.08;20.90;;;11.40;99.90;;;;;;4953665;28;20071;-60
2022/09/30 09:22:51;;;;;;;26.83;21.13;;;11.50;99.90;;;;;;4954313;28;20557;-59
2022/09/30 09:25:28;;;;;;;29.40;21.55;;;11.60;99.90;;;;;;4953318;28;20034;-59
2022/09/30 09:27:55;;;;;;;27.70;20.77;;;11.60;99.90;;;;;;4955401;28;20039;-59
2022/09/30 09:30:23;;;;;;;28.02;20.70;;;11.70;99.90;;;;;;4947641;28;20022;-58
2022/09/30 09:32:55;;;;;;;33.75;21.88;;;11.80;99.90;;;;;;4950059;28;20867;-59
2022/09/30 09:35:26;;;;;;;30.35;21.10;;;11.80;99.90;;;;;;4952756;28;20031;-59
2022/09/30 09:38:23;;;;;;;26.58;20.10;;;11.90;99.90;;;;;;4951559;28;20026;-59
2022/09/30 09:40:58;;;;;;;25.80;18.73;;;12.00;99.90;;;;;;4952933;28;20142;-59
2022/09/30 09:43:50;;;;;;;26.23;20.27;;;12.00;99.90;;;;;;4952073;28;20054;-59
2022/09/30 09:46:40;;;;;;;26.60;20.48;;;12.20;99.90;;;;;;4924731;28;20035;-60
2022/09/30 09:49:12;;;;;;;29.50;21.02;;;12.20;99.90;;;;;;4954251;28;20023;-58
2022/09/30 09:51:45;;;;;;;30.38;22.60;;;12.20;99.90;;;;;;4956555;28;20033;-59
2022/09/30 09:54:14;;;;;;;29.73;20.65;;;12.30;99.90;;;;;;4952640;28;20027;-59
2022/09/30 09:56:40;;;;;;;30.00;20.77;;;12.40;99.90;;;;;;4950119;28;20042;-58
2022/09/30 09:59:17;;;;;;;27.73;19.95;;;12.40;99.90;;;;;;4954997;28;20324;-59
2022/09/30 10:01:49;;;;;;;26.65;18.52;;;12.50;99.90;;;;;;4964130;28;20031;-59
2022/09/30 10:04:25;;;;;;;25.42;19.52;;;12.50;99.90;;;;;;4957452;28;20034;-59
2022/09/30 10:06:54;;;;;;;22.70;17.98;;;12.70;99.90;;;;;;4960119;28;20062;-58
2022/09/30 10:09:34;;;;;;;21.75;17.73;;;12.70;99.90;;;;;;4952744;28;20117;-59
2022/09/30 10:12:06;;;;;;;29.10;18.63;;;12.80;99.90;;;;;;4958867;28;20126;-59
2022/09/30 10:14:44;;;;;;;24.23;19.10;;;12.80;99.90;;;;;;4958215;28;20150;-58
2022/09/30 10:17:17;;;;;;;23.05;17.38;;;12.80;99.90;;;;;;4952624;28;20050;-57
2022/09/30 10:19:50;;;;;;;25.40;19.25;;;13.10;99.90;;;;;;4957874;28;20090;-58
2022/09/30 10:22:16;;;;;;;20.30;14.57;;;13.20;99.90;;;;;;4956295;28;20034;-58
2022/09/30 10:24:42;;;;;;;21.83;16.92;;;13.10;99.90;;;;;;4951136;28;20554;-59
2022/09/30 10:27:28;;;;;;;21.63;16.77;;;13.10;99.90;;;;;;4956517;28;20050;-59
2022/09/30 10:29:54;;;;;;;24.60;17.77;;;13.00;99.90;;;;;;4957215;28;20455;-58
2022/09/30 10:32:20;;;;;;;21.40;17.23;;;13.10;99.90;;;;;;4954223;28;20031;-57
2022/09/30 10:35:21;;;;;;;22.77;18.05;;;13.10;99.90;;;;;;4958807;28;20138;-57
2022/09/30 10:37:53;;;;;;;19.83;16.60;;;13.20;99.90;;;;;;4939785;28;20040;-59
2022/09/30 10:40:26;;;;;;;26.15;17.23;;;13.30;99.90;;;;;;4952397;28;20447;-59
2022/09/30 10:42:52;;;;;;;20.13;17.30;;;13.40;99.90;;;;;;4955494;28;20039;-58
2022/09/30 10:45:35;;;;;;;23.48;16.20;;;13.40;99.90;;;;;;4960341;28;20046;-59
2022/09/30 10:48:05;;;;;;;20.90;16.48;;;13.50;99.90;;;;;;4953832;28;20089;-57
2022/09/30 10:50:31;;;;;;;21.83;15.55;;;13.40;99.90;;;;;;4953122;28;20052;-58
2022/09/30 10:53:01;;;;;;;21.70;16.60;;;13.60;99.90;;;;;;4956164;28;20553;-58
2022/09/30 10:55:40;;;;;;;21.00;15.85;;;13.70;99.90;;;;;;4959226;28;20531;-58
2022/09/30 10:58:24;;;;;;;21.27;15.68;;;13.80;99.90;;;;;;4958357;28;20030;-58
2022/09/30 11:00:52;;;;;;;;;;;13.80;99.90;;;;;;4957953;28;20042;-57
2022/09/30 11:03:23;;;;;;;23.90;17.85;;;13.90;99.90;;;;;;4973387;28;19915;-58
2022/09/30 11:05:49;;;;;;;19.15;15.95;;;13.90;99.90;;;;;;4940532;28;20042;-58
2022/09/30 11:09:02;;;;;;;18.70;15.70;;;13.90;99.90;;;;;;4953169;28;20358;-58
2022/09/30 11:11:35;;;;;;;20.40;15.52;;;14.10;99.90;;;;;;4895929;29;20058;-59
2022/09/30 11:14:25;;;;;;;16.17;14.07;;;14.30;99.90;;;;;;4888069;29;20060;-56
2022/09/30 11:17:07;;;;;;;16.85;12.60;;;14.40;99.90;;;;;;4930762;28;20095;-58
2022/09/30 11:19:40;;;;;;;13.95;12.00;;;14.50;99.90;;;;;;4959231;28;20395;-58
2022/09/30 11:22:30;;;;;;;14.30;10.65;;;14.60;99.90;;;;;;4950898;28;20039;-58
2022/09/30 11:24:56;;;;;;;13.80;10.07;;;14.80;99.90;;;;;;4955145;28;20031;-58
2022/09/30 11:27:54;;;;;;;10.77;8.95;;;14.80;99.90;;;;;;4953479;28;20054;-58
2022/09/30 11:30:37;;;;;;;11.93;9.15;;;14.80;99.90;;;;;;4943745;28;20023;-58
2022/09/30 11:33:19;;;;;;;11.30;7.97;;;15.10;99.90;;;;;;4958417;28;20043;-57
2022/09/30 11:36:02;;;;;;;8.68;6.32;;;15.00;99.90;;;;;;4951687;28;20039;-58
2022/09/30 11:38:44;;;;;;;10.48;7.32;;;15.00;99.90;;;;;;4953366;28;20272;-58
2022/09/30 11:41:29;;;;;;;9.95;7.20;;;14.90;99.90;;;;;;4950064;28;20023;-58
2022/09/30 11:44:13;;;;;;;10.10;7.45;;;14.90;99.90;;;;;;4955823;28;20038;-56
2022/09/30 11:46:55;;;;;;;8.13;6.82;;;14.80;99.90;;;;;;4957263;28;20056;-58
2022/09/30 11:49:42;;;;;;;7.32;5.80;;;14.80;99.90;;;;;;4954487;28;20034;-58
2022/09/30 11:52:28;;;;;;;6.40;5.68;;;15.00;99.90;;;;;;4954932;28;20038;-58
2022/09/30 11:55:00;;;;;;;9.13;6.50;;;15.10;99.90;;;;;;4951978;28;20043;-59
2022/09/30 11:57:32;;;;;;;10.38;6.57;;;15.10;99.90;;;;;;4951135;28;20514;-59
2022/09/30 11:59:59;;;;;;;10.63;6.45;;;15.10;99.90;;;;;;4959010;28;20030;-59
2022/09/30 12:02:47;;;;;;;9.27;6.35;;;15.10;99.90;;;;;;4959606;28;20549;-58
2022/09/30 12:05:26;;;;;;;7.50;5.53;;;15.10;99.90;;;;;;4958079;28;20050;-57
2022/09/30 12:08:12;;;;;;;9.95;6.60;;;15.20;99.90;;;;;;4955804;28;20066;-57
2022/09/30 12:10:43;;;;;;;7.80;6.15;;;15.20;99.90;;;;;;4949006;28;20098;-58
2022/09/30 12:13:17;;;;;;;7.60;6.25;;;15.50;99.90;;;;;;4962064;28;20492;-57
2022/09/30 12:15:44;;;;;;;10.32;5.82;;;15.70;99.90;;;;;;4952182;28;20118;-58
2022/09/30 12:18:16;;;;;;;6.70;5.50;;;15.60;99.90;;;;;;4961962;28;20062;-57
2022/09/30 12:20:45;;;;;;;9.27;5.68;;;15.60;99.90;;;;;;4958037;28;20089;-58
2022/09/30 12:23:24;;;;;;;11.07;5.93;;;15.50;99.90;;;;;;4955546;28;20046;-58
2022/09/30 12:25:56;;;;;;;8.05;5.20;;;15.60;99.90;;;;;;4951735;28;20035;-57
2022/09/30 12:31:34;;;;;;;8.43;6.18;;;15.40;99.90;;;;;;4952670;28;20038;-57
2022/09/30 12:34:15;;;;;;;5.13;3.73;;;15.30;99.90;;;;;;4953772;28;20034;-57
2022/09/30 12:37:18;;;;;;;7.50;5.13;;;15.40;99.90;;;;;;4942091;28;20047;-55
2022/09/30 12:40:10;;;;;;;5.45;4.35;;;15.30;99.90;;;;;;4953593;28;20046;-56
2022/09/30 12:42:59;;;;;;;7.68;5.20;;;15.60;99.90;;;;;;4953556;28;20042;-58
2022/09/30 12:45:36;;;;;;;8.73;5.20;;;15.40;99.90;;;;;;4952142;28;20702;-57
2022/09/30 12:48:10;;;;;;;7.35;5.90;;;15.50;99.90;;;;;;4952393;28;20027;-58
2022/09/30 12:50:43;;;;;;;5.60;4.30;;;15.60;99.90;;;;;;4957475;28;20411;-57
2022/09/30 12:53:11;;;;;;;;;;;15.60;99.90;;;;;;4949098;28;20356;-58
2022/09/30 12:55:40;;;;;;;7.30;5.00;;;15.50;99.90;;;;;;4953317;28;20446;-58
2022/09/30 12:58:36;;;;;;;8.65;6.28;;;15.50;99.90;;;;;;4949910;28;20140;-58
2022/09/30 13:01:22;;;;;;;6.93;5.15;;;15.40;99.90;;;;;;4948734;28;20676;-57
2022/09/30 13:03:59;;;;;;;7.45;5.13;;;15.50;99.90;;;;;;4951604;28;20077;-57
2022/09/30 13:06:43;;;;;;;5.75;5.22;;;15.60;99.90;;;;;;4953501;28;20047;-58
2022/09/30 13:09:15;;;;;;;9.13;5.28;;;15.60;99.90;;;;;;4951832;28;20043;-57
2022/09/30 13:11:53;;;;;;;5.47;4.20;;;15.90;99.90;;;;;;4951353;28;20062;-58
2022/09/30 13:14:34;;;;;;;7.00;5.50;;;15.90;99.90;;;;;;4951761;28;20059;-58